sensor_id;sensor_type;location;lat;lon;timestamp;temperature;humidity
5956;DHT22;3004;48.080;11.600;2022-08-19T00:01:57;17.60;99.90
5956;DHT22;3004;48.080;11.600;2022-08-19T00:07:21;17.60;99.90
5956;DHT22;3004;48.080;11.600;2022-08-19T00:09:53;17.60;99.90
5956;DHT22;3004;48.080;11.600;2022-08-19T00:12:21;17.60;99.90
5956;DHT22;3004;48.080;11.600;2022-08-19T00:14:48;17.70;99.90
5956;DHT22;3004;48.080;11.600;2022-08-19T00:17:19;17.70;99.90
5956;DHT22;3004;48.080;11.600;2022-08-19T00:19:47;17.70;99.90
5956;DHT22;3004;48.080;11.600;2022-08-19T00:22:14;17.70;99.90
5956;DHT22;3004;48.080;11.600;2022-08-19T00:24:45;17.70;99.90
5956;DHT22;3004;48.080;11.600;2022-08-19T00:27:12;17.70;99.90
5956;DHT22;3004;48.080;11.600;2022-08-19T00:29:40;17.70;99.90
5956;DHT22;3004;48.080;11.600;2022-08-19T00:32:10;17.70;99.90
5956;DHT22;3004;48.080;11.600;2022-08-19T00:34:37;17.60;99.90
5956;DHT22;3004;48.080;11.600;2022-08-19T00:37:04;17.60;99.90
5956;DHT22;3004;48.080;11.600;2022-08-19T00:39:31;17.60;99.90
5956;DHT22;3004;48.080;11.600;2022-08-19T00:42:01;17.60;99.90
5956;DHT22;3004;48.080;11.600;2022-08-19T00:44:29;17.70;99.90
5956;DHT22;3004;48.080;11.600;2022-08-19T00:46:58;17.60;99.90
5956;DHT22;3004;48.080;11.600;2022-08-19T00:49:29;17.60;99.90
5956;DHT22;3004;48.080;11.600;2022-08-19T00:52:02;17.70;99.90
5956;DHT22;3004;48.080;11.600;2022-08-19T00:54:30;17.70;99.90
5956;DHT22;3004;48.080;11.600;2022-08-19T00:59:28;17.70;99.90
5956;DHT22;3004;48.080;11.600;2022-08-19T01:01:56;17.70;99.90
5956;DHT22;3004;48.080;11.600;2022-08-19T01:04:23;17.70;99.90
5956;DHT22;3004;48.080;11.600;2022-08-19T01:06:50;17.70;99.90
5956;DHT22;3004;48.080;11.600;2022-08-19T01:09:17;17.60;99.90
5956;DHT22;3004;48.080;11.600;2022-08-19T01:11:44;17.60;99.90
5956;DHT22;3004;48.080;11.600;2022-08-19T01:14:12;17.60;99.90
5956;DHT22;3004;48.080;11.600;2022-08-19T01:16:42;17.60;99.90
5956;DHT22;3004;48.080;11.600;2022-08-19T01:19:15;17.60;99.90
5956;DHT22;3004;48.080;11.600;2022-08-19T01:21:49;17.60;99.90
5956;DHT22;3004;48.080;11.600;2022-08-19T01:24:20;17.60;99.90
5956;DHT22;3004;48.080;11.600;2022-08-19T01:26:48;17.60;99.90
5956;DHT22;3004;48.080;11.600;2022-08-19T01:29:15;17.70;99.90
5956;DHT22;3004;48.080;11.600;2022-08-19T01:31:42;17.60;99.90
5956;DHT22;3004;48.080;11.600;2022-08-19T01:34:09;17.70;99.90
5956;DHT22;3004;48.080;11.600;2022-08-19T01:36:37;17.60;99.90
5956;DHT22;3004;48.080;11.600;2022-08-19T01:39:10;17.60;99.90
5956;DHT22;3004;48.080;11.600;2022-08-19T01:41:41;17.60;99.90
5956;DHT22;3004;48.080;11.600;2022-08-19T01:44:09;17.60;99.90
5956;DHT22;3004;48.080;11.600;2022-08-19T01:46:36;17.60;99.90
5956;DHT22;3004;48.080;11.600;2022-08-19T01:49:04;17.60;99.90
5956;DHT22;3004;48.080;11.600;2022-08-19T01:51:31;17.60;99.90
5956;DHT22;3004;48.080;11.600;2022-08-19T01:53:58;17.60;99.90
5956;DHT22;3004;48.080;11.600;2022-08-19T01:56:26;17.60;99.90
5956;DHT22;3004;48.080;11.600;2022-08-19T01:58:58;17.70;99.90
5956;DHT22;3004;48.080;11.600;2022-08-19T02:01:27;17.70;99.90
5956;DHT22;3004;48.080;11.600;2022-08-19T02:03:58;17.70;99.90
5956;DHT22;3004;48.080;11.600;2022-08-19T02:06:26;17.70;99.90
5956;DHT22;3004;48.080;11.600;2022-08-19T02:08:54;17.70;99.90
5956;DHT22;3004;48.080;11.600;2022-08-19T02:11:23;17.70;99.90
5956;DHT22;3004;48.080;11.600;2022-08-19T02:13:55;17.70;99.90
5956;DHT22;3004;48.080;11.600;2022-08-19T02:16:22;17.70;99.90
5956;DHT22;3004;48.080;11.600;2022-08-19T02:18:49;17.70;99.90
5956;DHT22;3004;48.080;11.600;2022-08-19T02:21:17;17.70;99.90
5956;DHT22;3004;48.080;11.600;2022-08-19T02:23:45;17.70;99.90
5956;DHT22;3004;48.080;11.600;2022-08-19T02:26:12;17.70;99.90
5956;DHT22;3004;48.080;11.600;2022-08-19T02:28:41;17.70;99.90
5956;DHT22;3004;48.080;11.600;2022-08-19T02:31:12;17.70;99.90
5956;DHT22;3004;48.080;11.600;2022-08-19T02:33:40;17.70;99.90
5956;DHT22;3004;48.080;11.600;2022-08-19T02:36:11;17.60;99.90
5956;DHT22;3004;48.080;11.600;2022-08-19T02:38:39;17.70;99.90
5956;DHT22;3004;48.080;11.600;2022-08-19T02:41:07;17.60;99.90
5956;DHT22;3004;48.080;11.600;2022-08-19T02:43:35;17.60;99.90
5956;DHT22;3004;48.080;11.600;2022-08-19T02:46:14;17.60;99.90
5956;DHT22;3004;48.080;11.600;2022-08-19T02:48:43;17.60;99.90
5956;DHT22;3004;48.080;11.600;2022-08-19T02:51:16;17.60;99.90
5956;DHT22;3004;48.080;11.600;2022-08-19T02:53:43;17.60;99.90
5956;DHT22;3004;48.080;11.600;2022-08-19T02:56:10;17.60;99.90
5956;DHT22;3004;48.080;11.600;2022-08-19T02:58:38;17.60;99.90
5956;DHT22;3004;48.080;11.600;2022-08-19T03:01:05;17.50;99.90
5956;DHT22;3004;48.080;11.600;2022-08-19T03:03:36;17.50;99.90
5956;DHT22;3004;48.080;11.600;2022-08-19T03:06:05;17.50;99.90
5956;DHT22;3004;48.080;11.600;2022-08-19T03:08:32;17.40;99.90
5956;DHT22;3004;48.080;11.600;2022-08-19T03:10:59;17.40;99.90
5956;DHT22;3004;48.080;11.600;2022-08-19T03:13:26;17.40;99.90
5956;DHT22;3004;48.080;11.600;2022-08-19T03:15:53;17.30;99.90
5956;DHT22;3004;48.080;11.600;2022-08-19T03:18:20;17.30;99.90
5956;DHT22;3004;48.080;11.600;2022-08-19T03:20:51;17.30;99.90
5956;DHT22;3004;48.080;11.600;2022-08-19T03:23:21;17.30;99.90
5956;DHT22;3004;48.080;11.600;2022-08-19T03:25:51;17.20;99.90
5956;DHT22;3004;48.080;11.600;2022-08-19T03:28:20;17.20;99.90
5956;DHT22;3004;48.080;11.600;2022-08-19T03:30:58;17.20;99.90
5956;DHT22;3004;48.080;11.600;2022-08-19T03:33:27;17.20;99.90
5956;DHT22;3004;48.080;11.600;2022-08-19T03:36:07;17.20;99.90
5956;DHT22;3004;48.080;11.600;2022-08-19T03:38:37;17.20;99.90
5956;DHT22;3004;48.080;11.600;2022-08-19T03:41:06;17.10;99.90
5956;DHT22;3004;48.080;11.600;2022-08-19T03:43:35;17.20;99.90
5956;DHT22;3004;48.080;11.600;2022-08-19T03:46:05;17.20;99.90
5956;DHT22;3004;48.080;11.600;2022-08-19T03:48:33;17.10;99.90
5956;DHT22;3004;48.080;11.600;2022-08-19T03:51:00;17.10;99.90
5956;DHT22;3004;48.080;11.600;2022-08-19T03:53:30;17.20;99.90
5956;DHT22;3004;48.080;11.600;2022-08-19T03:55:58;17.20;99.90
5956;DHT22;3004;48.080;11.600;2022-08-19T03:58:27;17.20;99.90
5956;DHT22;3004;48.080;11.600;2022-08-19T04:00:54;17.20;99.90
5956;DHT22;3004;48.080;11.600;2022-08-19T04:03:22;17.20;99.90
5956;DHT22;3004;48.080;11.600;2022-08-19T04:05:49;17.20;99.90
5956;DHT22;3004;48.080;11.600;2022-08-19T04:08:18;17.20;99.90
5956;DHT22;3004;48.080;11.600;2022-08-19T04:10:48;17.20;99.90
5956;DHT22;3004;48.080;11.600;2022-08-19T04:13:15;17.20;99.90
5956;DHT22;3004;48.080;11.600;2022-08-19T04:15:45;17.10;99.90
5956;DHT22;3004;48.080;11.600;2022-08-19T04:18:12;17.10;99.90
5956;DHT22;3004;48.080;11.600;2022-08-19T04:20:42;17.20;99.90
5956;DHT22;3004;48.080;11.600;2022-08-19T04:23:09;17.20;99.90
5956;DHT22;3004;48.080;11.600;2022-08-19T04:25:38;17.20;99.90
5956;DHT22;3004;48.080;11.600;2022-08-19T04:28:08;17.30;99.90
5956;DHT22;3004;48.080;11.600;2022-08-19T04:30:41;17.20;99.90
5956;DHT22;3004;48.080;11.600;2022-08-19T04:33:08;17.20;99.90
5956;DHT22;3004;48.080;11.600;2022-08-19T04:35:38;17.30;99.90
5956;DHT22;3004;48.080;11.600;2022-08-19T04:38:05;17.30;99.90
5956;DHT22;3004;48.080;11.600;2022-08-19T04:40:33;17.30;99.90
5956;DHT22;3004;48.080;11.600;2022-08-19T04:43:31;17.30;99.90
5956;DHT22;3004;48.080;11.600;2022-08-19T04:46:04;17.30;99.90
5956;DHT22;3004;48.080;11.600;2022-08-19T04:48:31;17.30;99.90
5956;DHT22;3004;48.080;11.600;2022-08-19T04:50:58;17.30;99.90
5956;DHT22;3004;48.080;11.600;2022-08-19T04:53:26;17.30;99.90
5956;DHT22;3004;48.080;11.600;2022-08-19T04:55:54;17.30;99.90
5956;DHT22;3004;48.080;11.600;2022-08-19T04:58:22;17.30;99.90
5956;DHT22;3004;48.080;11.600;2022-08-19T05:00:51;17.30;99.90
5956;DHT22;3004;48.080;11.600;2022-08-19T05:03:18;17.30;99.90
5956;DHT22;3004;48.080;11.600;2022-08-19T05:05:46;17.30;99.90
5956;DHT22;3004;48.080;11.600;2022-08-19T05:08:18;17.30;99.90
5956;DHT22;3004;48.080;11.600;2022-08-19T05:10:47;17.30;99.90
5956;DHT22;3004;48.080;11.600;2022-08-19T05:13:15;17.40;99.90
5956;DHT22;3004;48.080;11.600;2022-08-19T05:15:42;17.40;99.90
5956;DHT22;3004;48.080;11.600;2022-08-19T05:18:11;17.40;99.90
5956;DHT22;3004;48.080;11.600;2022-08-19T05:20:55;17.40;99.90
5956;DHT22;3004;48.080;11.600;2022-08-19T05:23:39;17.40;99.90
5956;DHT22;3004;48.080;11.600;2022-08-19T05:26:07;17.40;99.90
5956;DHT22;3004;48.080;11.600;2022-08-19T05:28:42;17.50;99.90
5956;DHT22;3004;48.080;11.600;2022-08-19T05:31:09;17.50;99.90
5956;DHT22;3004;48.080;11.600;2022-08-19T05:33:39;17.50;99.90
5956;DHT22;3004;48.080;11.600;2022-08-19T05:36:06;17.50;99.90
5956;DHT22;3004;48.080;11.600;2022-08-19T05:38:42;17.50;99.90
5956;DHT22;3004;48.080;11.600;2022-08-19T05:41:11;17.50;99.90
5956;DHT22;3004;48.080;11.600;2022-08-19T05:43:42;17.40;99.90
5956;DHT22;3004;48.080;11.600;2022-08-19T05:46:19;17.50;99.90
5956;DHT22;3004;48.080;11.600;2022-08-19T05:48:48;17.50;99.90
5956;DHT22;3004;48.080;11.600;2022-08-19T05:51:15;17.50;99.90
5956;DHT22;3004;48.080;11.600;2022-08-19T05:53:43;17.50;99.90
5956;DHT22;3004;48.080;11.600;2022-08-19T05:56:13;17.60;99.90
5956;DHT22;3004;48.080;11.600;2022-08-19T05:58:42;17.60;99.90
5956;DHT22;3004;48.080;11.600;2022-08-19T06:01:13;17.60;99.90
5956;DHT22;3004;48.080;11.600;2022-08-19T06:03:40;17.70;99.90
5956;DHT22;3004;48.080;11.600;2022-08-19T06:06:12;17.70;99.90
5956;DHT22;3004;48.080;11.600;2022-08-19T06:08:39;17.60;99.90
5956;DHT22;3004;48.080;11.600;2022-08-19T06:11:14;17.60;99.90
5956;DHT22;3004;48.080;11.600;2022-08-19T06:13:41;17.60;99.90
5956;DHT22;3004;48.080;11.600;2022-08-19T06:16:08;17.60;99.90
5956;DHT22;3004;48.080;11.600;2022-08-19T06:18:35;17.60;99.90
5956;DHT22;3004;48.080;11.600;2022-08-19T06:21:04;17.60;99.90
5956;DHT22;3004;48.080;11.600;2022-08-19T06:23:33;17.50;99.90
5956;DHT22;3004;48.080;11.600;2022-08-19T06:26:00;17.40;99.90
5956;DHT22;3004;48.080;11.600;2022-08-19T06:28:27;17.30;99.90
5956;DHT22;3004;48.080;11.600;2022-08-19T06:30:54;17.30;99.90
5956;DHT22;3004;48.080;11.600;2022-08-19T06:33:21;17.30;99.90
5956;DHT22;3004;48.080;11.600;2022-08-19T06:35:48;17.20;99.90
5956;DHT22;3004;48.080;11.600;2022-08-19T06:38:15;17.20;99.90
5956;DHT22;3004;48.080;11.600;2022-08-19T06:40:44;17.20;99.90
5956;DHT22;3004;48.080;11.600;2022-08-19T06:43:11;17.10;99.90
5956;DHT22;3004;48.080;11.600;2022-08-19T06:45:41;17.10;99.90
5956;DHT22;3004;48.080;11.600;2022-08-19T06:48:09;17.00;99.90
5956;DHT22;3004;48.080;11.600;2022-08-19T06:50:36;17.00;99.90
5956;DHT22;3004;48.080;11.600;2022-08-19T06:53:02;17.00;99.90
5956;DHT22;3004;48.080;11.600;2022-08-19T06:55:31;17.00;99.90
5956;DHT22;3004;48.080;11.600;2022-08-19T06:58:01;17.00;99.90
5956;DHT22;3004;48.080;11.600;2022-08-19T07:00:29;17.10;99.90
5956;DHT22;3004;48.080;11.600;2022-08-19T07:02:56;17.10;99.90
5956;DHT22;3004;48.080;11.600;2022-08-19T07:05:24;17.10;99.90
5956;DHT22;3004;48.080;11.600;2022-08-19T07:07:51;17.00;99.90
5956;DHT22;3004;48.080;11.600;2022-08-19T07:10:18;17.00;99.90
5956;DHT22;3004;48.080;11.600;2022-08-19T07:12:45;17.10;99.90
5956;DHT22;3004;48.080;11.600;2022-08-19T07:15:15;17.10;99.90
5956;DHT22;3004;48.080;11.600;2022-08-19T07:17:42;17.10;99.90
5956;DHT22;3004;48.080;11.600;2022-08-19T07:20:10;17.20;99.90
5956;DHT22;3004;48.080;11.600;2022-08-19T07:22:38;17.10;99.90
5956;DHT22;3004;48.080;11.600;2022-08-19T07:25:07;17.20;99.90
5956;DHT22;3004;48.080;11.600;2022-08-19T07:27:34;17.20;99.90
5956;DHT22;3004;48.080;11.600;2022-08-19T07:30:02;17.30;99.90
5956;DHT22;3004;48.080;11.600;2022-08-19T07:32:32;17.30;99.90
5956;DHT22;3004;48.080;11.600;2022-08-19T07:34:59;17.30;99.90
5956;DHT22;3004;48.080;11.600;2022-08-19T07:37:28;17.40;99.90
5956;DHT22;3004;48.080;11.600;2022-08-19T07:39:55;17.40;99.90
5956;DHT22;3004;48.080;11.600;2022-08-19T07:42:22;17.40;99.90
5956;DHT22;3004;48.080;11.600;2022-08-19T07:44:49;17.30;99.90
5956;DHT22;3004;48.080;11.600;2022-08-19T07:47:16;17.30;99.90
5956;DHT22;3004;48.080;11.600;2022-08-19T07:49:45;17.40;99.90
5956;DHT22;3004;48.080;11.600;2022-08-19T07:52:12;17.40;99.90
5956;DHT22;3004;48.080;11.600;2022-08-19T07:54:39;17.50;99.90
5956;DHT22;3004;48.080;11.600;2022-08-19T07:57:07;17.80;99.90
5956;DHT22;3004;48.080;11.600;2022-08-19T07:59:35;17.80;99.90
5956;DHT22;3004;48.080;11.600;2022-08-19T08:02:02;17.80;99.90
5956;DHT22;3004;48.080;11.600;2022-08-19T08:04:31;17.90;99.90
5956;DHT22;3004;48.080;11.600;2022-08-19T08:07:17;17.80;99.90
5956;DHT22;3004;48.080;11.600;2022-08-19T08:10:02;17.80;99.90
5956;DHT22;3004;48.080;11.600;2022-08-19T08:12:35;17.70;99.90
5956;DHT22;3004;48.080;11.600;2022-08-19T08:15:09;17.80;99.90
5956;DHT22;3004;48.080;11.600;2022-08-19T08:17:37;17.70;99.90
5956;DHT22;3004;48.080;11.600;2022-08-19T08:20:06;17.70;99.90
5956;DHT22;3004;48.080;11.600;2022-08-19T08:22:35;17.70;99.90
5956;DHT22;3004;48.080;11.600;2022-08-19T08:25:21;17.70;99.90
5956;DHT22;3004;48.080;11.600;2022-08-19T08:27:49;17.70;99.90
5956;DHT22;3004;48.080;11.600;2022-08-19T08:30:18;17.70;99.90
5956;DHT22;3004;48.080;11.600;2022-08-19T08:32:45;17.70;99.90
5956;DHT22;3004;48.080;11.600;2022-08-19T08:35:15;17.70;99.90
5956;DHT22;3004;48.080;11.600;2022-08-19T08:37:46;17.70;99.90
5956;DHT22;3004;48.080;11.600;2022-08-19T08:40:19;17.70;99.90
5956;DHT22;3004;48.080;11.600;2022-08-19T08:42:54;17.80;99.90
5956;DHT22;3004;48.080;11.600;2022-08-19T08:45:24;17.70;99.90
5956;DHT22;3004;48.080;11.600;2022-08-19T08:47:55;17.70;99.90
5956;DHT22;3004;48.080;11.600;2022-08-19T08:50:41;17.70;99.90
5956;DHT22;3004;48.080;11.600;2022-08-19T08:53:18;17.80;99.90
5956;DHT22;3004;48.080;11.600;2022-08-19T08:55:48;17.80;99.90
5956;DHT22;3004;48.080;11.600;2022-08-19T08:58:27;17.80;99.90
5956;DHT22;3004;48.080;11.600;2022-08-19T09:00:56;17.70;99.90
5956;DHT22;3004;48.080;11.600;2022-08-19T09:03:29;17.70;99.90
5956;DHT22;3004;48.080;11.600;2022-08-19T09:06:07;17.70;99.90
5956;DHT22;3004;48.080;11.600;2022-08-19T09:08:47;17.70;99.90
5956;DHT22;3004;48.080;11.600;2022-08-19T09:11:21;17.70;99.90
5956;DHT22;3004;48.080;11.600;2022-08-19T09:13:58;17.90;99.90
5956;DHT22;3004;48.080;11.600;2022-08-19T09:16:30;17.80;99.90
5956;DHT22;3004;48.080;11.600;2022-08-19T09:19:02;17.90;99.90
5956;DHT22;3004;48.080;11.600;2022-08-19T09:21:29;17.90;99.90
5956;DHT22;3004;48.080;11.600;2022-08-19T09:24:00;17.90;99.90
5956;DHT22;3004;48.080;11.600;2022-08-19T09:26:30;17.80;99.90
5956;DHT22;3004;48.080;11.600;2022-08-19T09:28:58;17.90;99.90
5956;DHT22;3004;48.080;11.600;2022-08-19T09:31:29;17.90;99.90
5956;DHT22;3004;48.080;11.600;2022-08-19T09:33:58;17.90;99.90
5956;DHT22;3004;48.080;11.600;2022-08-19T09:36:30;17.80;99.90
5956;DHT22;3004;48.080;11.600;2022-08-19T09:39:00;17.80;99.90
5956;DHT22;3004;48.080;11.600;2022-08-19T09:41:27;17.90;99.90
5956;DHT22;3004;48.080;11.600;2022-08-19T09:43:57;17.90;99.90
5956;DHT22;3004;48.080;11.600;2022-08-19T09:46:27;18.00;99.90
5956;DHT22;3004;48.080;11.600;2022-08-19T09:48:59;18.00;99.90
5956;DHT22;3004;48.080;11.600;2022-08-19T09:51:29;18.10;99.90
5956;DHT22;3004;48.080;11.600;2022-08-19T09:54:00;18.20;99.90
5956;DHT22;3004;48.080;11.600;2022-08-19T09:56:29;18.20;99.90
5956;DHT22;3004;48.080;11.600;2022-08-19T09:58:57;18.30;99.90
5956;DHT22;3004;48.080;11.600;2022-08-19T10:01:27;18.40;99.90
5956;DHT22;3004;48.080;11.600;2022-08-19T10:03:56;18.40;99.90
5956;DHT22;3004;48.080;11.600;2022-08-19T10:06:24;18.40;99.90
5956;DHT22;3004;48.080;11.600;2022-08-19T10:08:54;18.50;99.90
5956;DHT22;3004;48.080;11.600;2022-08-19T10:11:23;18.70;99.90
5956;DHT22;3004;48.080;11.600;2022-08-19T10:13:50;18.70;99.90
5956;DHT22;3004;48.080;11.600;2022-08-19T10:16:19;18.50;99.90
5956;DHT22;3004;48.080;11.600;2022-08-19T10:18:47;18.50;99.90
5956;DHT22;3004;48.080;11.600;2022-08-19T10:21:16;18.50;99.90
5956;DHT22;3004;48.080;11.600;2022-08-19T10:23:45;18.40;99.90
5956;DHT22;3004;48.080;11.600;2022-08-19T10:26:14;18.50;99.90
5956;DHT22;3004;48.080;11.600;2022-08-19T10:28:43;18.60;99.90
5956;DHT22;3004;48.080;11.600;2022-08-19T10:31:12;18.50;99.90
5956;DHT22;3004;48.080;11.600;2022-08-19T10:33:40;18.50;99.90
5956;DHT22;3004;48.080;11.600;2022-08-19T10:36:10;18.60;99.90
5956;DHT22;3004;48.080;11.600;2022-08-19T10:38:40;18.70;99.90
5956;DHT22;3004;48.080;11.600;2022-08-19T10:41:09;18.70;99.90
5956;DHT22;3004;48.080;11.600;2022-08-19T10:43:36;18.60;99.90
5956;DHT22;3004;48.080;11.600;2022-08-19T10:46:07;18.90;99.90
5956;DHT22;3004;48.080;11.600;2022-08-19T10:48:35;19.00;99.90
5956;DHT22;3004;48.080;11.600;2022-08-19T10:51:02;18.90;99.90
5956;DHT22;3004;48.080;11.600;2022-08-19T10:53:47;18.90;99.90
5956;DHT22;3004;48.080;11.600;2022-08-19T10:56:14;18.70;99.90
5956;DHT22;3004;48.080;11.600;2022-08-19T10:58:59;18.60;99.90
5956;DHT22;3004;48.080;11.600;2022-08-19T11:01:27;18.60;99.90
5956;DHT22;3004;48.080;11.600;2022-08-19T11:03:55;18.90;99.90
5956;DHT22;3004;48.080;11.600;2022-08-19T11:06:23;19.10;99.90
5956;DHT22;3004;48.080;11.600;2022-08-19T11:08:50;19.20;99.90
5956;DHT22;3004;48.080;11.600;2022-08-19T11:11:17;19.10;99.90
5956;DHT22;3004;48.080;11.600;2022-08-19T11:13:44;19.00;99.90
5956;DHT22;3004;48.080;11.600;2022-08-19T11:16:14;19.10;99.90
5956;DHT22;3004;48.080;11.600;2022-08-19T11:18:45;19.30;99.90
5956;DHT22;3004;48.080;11.600;2022-08-19T11:21:16;19.40;99.90
5956;DHT22;3004;48.080;11.600;2022-08-19T11:23:46;19.20;99.90
5956;DHT22;3004;48.080;11.600;2022-08-19T11:26:14;19.10;99.90
5956;DHT22;3004;48.080;11.600;2022-08-19T11:28:42;19.00;99.90
5956;DHT22;3004;48.080;11.600;2022-08-19T11:31:10;19.00;99.90
5956;DHT22;3004;48.080;11.600;2022-08-19T11:33:38;19.00;99.90
5956;DHT22;3004;48.080;11.600;2022-08-19T11:36:08;18.90;99.90
5956;DHT22;3004;48.080;11.600;2022-08-19T11:38:35;18.90;99.90
5956;DHT22;3004;48.080;11.600;2022-08-19T11:41:05;19.10;99.90
5956;DHT22;3004;48.080;11.600;2022-08-19T11:43:32;19.20;99.90
5956;DHT22;3004;48.080;11.600;2022-08-19T11:45:59;19.30;99.90
5956;DHT22;3004;48.080;11.600;2022-08-19T11:48:27;19.30;99.90
5956;DHT22;3004;48.080;11.600;2022-08-19T11:50:54;19.30;99.90
5956;DHT22;3004;48.080;11.600;2022-08-19T11:53:23;19.50;99.90
5956;DHT22;3004;48.080;11.600;2022-08-19T11:55:53;19.20;99.90
5956;DHT22;3004;48.080;11.600;2022-08-19T11:58:22;19.00;99.90
5956;DHT22;3004;48.080;11.600;2022-08-19T12:00:50;18.90;99.90
5956;DHT22;3004;48.080;11.600;2022-08-19T12:03:18;19.00;99.90
5956;DHT22;3004;48.080;11.600;2022-08-19T12:05:46;19.00;99.90
5956;DHT22;3004;48.080;11.600;2022-08-19T12:08:13;19.10;99.90
5956;DHT22;3004;48.080;11.600;2022-08-19T12:10:43;19.20;99.90
5956;DHT22;3004;48.080;11.600;2022-08-19T12:13:11;19.20;99.90
5956;DHT22;3004;48.080;11.600;2022-08-19T12:15:40;19.20;99.90
5956;DHT22;3004;48.080;11.600;2022-08-19T12:18:08;19.20;99.90
5956;DHT22;3004;48.080;11.600;2022-08-19T12:20:36;19.30;99.90
5956;DHT22;3004;48.080;11.600;2022-08-19T12:23:04;19.30;99.90
5956;DHT22;3004;48.080;11.600;2022-08-19T12:25:32;19.30;99.90
5956;DHT22;3004;48.080;11.600;2022-08-19T12:28:01;19.20;99.90
5956;DHT22;3004;48.080;11.600;2022-08-19T12:30:28;19.10;99.90
5956;DHT22;3004;48.080;11.600;2022-08-19T12:32:55;19.00;99.90
5956;DHT22;3004;48.080;11.600;2022-08-19T12:35:22;18.90;99.90
5956;DHT22;3004;48.080;11.600;2022-08-19T12:37:49;18.70;99.90
5956;DHT22;3004;48.080;11.600;2022-08-19T12:40:16;18.60;99.90
5956;DHT22;3004;48.080;11.600;2022-08-19T12:42:45;18.50;99.90
5956;DHT22;3004;48.080;11.600;2022-08-19T12:45:13;18.50;99.90
5956;DHT22;3004;48.080;11.600;2022-08-19T12:47:41;18.60;99.90
5956;DHT22;3004;48.080;11.600;2022-08-19T12:50:08;18.70;99.90
5956;DHT22;3004;48.080;11.600;2022-08-19T12:52:36;18.80;99.90
5956;DHT22;3004;48.080;11.600;2022-08-19T12:55:04;18.80;99.90
5956;DHT22;3004;48.080;11.600;2022-08-19T12:57:32;18.90;99.90
5956;DHT22;3004;48.080;11.600;2022-08-19T13:00:03;19.00;99.90
5956;DHT22;3004;48.080;11.600;2022-08-19T13:02:34;19.10;99.90
5956;DHT22;3004;48.080;11.600;2022-08-19T13:05:02;19.30;99.90
5956;DHT22;3004;48.080;11.600;2022-08-19T13:07:31;19.60;99.90
5956;DHT22;3004;48.080;11.600;2022-08-19T13:09:59;20.20;99.90
5956;DHT22;3004;48.080;11.600;2022-08-19T13:12:26;20.30;99.90
5956;DHT22;3004;48.080;11.600;2022-08-19T13:14:53;20.40;99.90
5956;DHT22;3004;48.080;11.600;2022-08-19T13:17:21;20.20;99.90
5956;DHT22;3004;48.080;11.600;2022-08-19T13:19:49;20.40;99.90
5956;DHT22;3004;48.080;11.600;2022-08-19T13:22:17;20.30;99.90
5956;DHT22;3004;48.080;11.600;2022-08-19T13:24:44;20.10;99.90
5956;DHT22;3004;48.080;11.600;2022-08-19T13:27:11;20.20;99.90
5956;DHT22;3004;48.080;11.600;2022-08-19T13:29:39;20.00;99.90
5956;DHT22;3004;48.080;11.600;2022-08-19T13:32:24;20.20;99.90
5956;DHT22;3004;48.080;11.600;2022-08-19T13:35:09;20.20;99.90
5956;DHT22;3004;48.080;11.600;2022-08-19T13:37:36;20.40;99.90
5956;DHT22;3004;48.080;11.600;2022-08-19T13:40:12;20.80;99.90
5956;DHT22;3004;48.080;11.600;2022-08-19T13:42:41;21.20;99.90
5956;DHT22;3004;48.080;11.600;2022-08-19T13:45:09;21.40;99.90
5956;DHT22;3004;48.080;11.600;2022-08-19T13:47:37;21.40;99.90
5956;DHT22;3004;48.080;11.600;2022-08-19T13:50:10;21.40;99.90
5956;DHT22;3004;48.080;11.600;2022-08-19T13:52:37;21.40;99.90
5956;DHT22;3004;48.080;11.600;2022-08-19T13:55:05;21.30;99.90
5956;DHT22;3004;48.080;11.600;2022-08-19T13:57:33;21.10;99.90
5956;DHT22;3004;48.080;11.600;2022-08-19T14:00:01;20.90;99.90
5956;DHT22;3004;48.080;11.600;2022-08-19T14:02:28;20.70;99.90
5956;DHT22;3004;48.080;11.600;2022-08-19T14:04:55;20.60;99.90
5956;DHT22;3004;48.080;11.600;2022-08-19T14:07:24;20.40;99.90
5956;DHT22;3004;48.080;11.600;2022-08-19T14:09:51;20.60;99.90
5956;DHT22;3004;48.080;11.600;2022-08-19T14:12:19;20.60;99.90
5956;DHT22;3004;48.080;11.600;2022-08-19T14:14:47;20.70;99.90
5956;DHT22;3004;48.080;11.600;2022-08-19T14:17:14;20.60;99.90
5956;DHT22;3004;48.080;11.600;2022-08-19T14:19:42;20.50;99.90
5956;DHT22;3004;48.080;11.600;2022-08-19T14:22:09;20.40;99.90
5956;DHT22;3004;48.080;11.600;2022-08-19T14:24:38;20.40;99.90
5956;DHT22;3004;48.080;11.600;2022-08-19T14:27:06;20.40;99.90
5956;DHT22;3004;48.080;11.600;2022-08-19T14:29:33;20.70;99.90
5956;DHT22;3004;48.080;11.600;2022-08-19T14:32:00;20.80;99.90
5956;DHT22;3004;48.080;11.600;2022-08-19T14:34:27;20.70;99.90
5956;DHT22;3004;48.080;11.600;2022-08-19T14:36:54;20.40;99.90
5956;DHT22;3004;48.080;11.600;2022-08-19T14:39:21;20.10;99.90
5956;DHT22;3004;48.080;11.600;2022-08-19T14:41:49;19.80;99.90
5956;DHT22;3004;48.080;11.600;2022-08-19T14:44:16;19.70;99.90
5956;DHT22;3004;48.080;11.600;2022-08-19T14:46:43;19.70;99.90
5956;DHT22;3004;48.080;11.600;2022-08-19T14:49:10;19.80;99.90
5956;DHT22;3004;48.080;11.600;2022-08-19T14:51:37;19.90;99.90
5956;DHT22;3004;48.080;11.600;2022-08-19T14:54:04;20.00;99.90
5956;DHT22;3004;48.080;11.600;2022-08-19T14:56:31;20.00;99.90
5956;DHT22;3004;48.080;11.600;2022-08-19T14:59:00;19.90;99.90
5956;DHT22;3004;48.080;11.600;2022-08-19T15:01:27;19.90;99.90
5956;DHT22;3004;48.080;11.600;2022-08-19T15:03:54;19.90;99.90
5956;DHT22;3004;48.080;11.600;2022-08-19T15:06:22;19.90;99.90
5956;DHT22;3004;48.080;11.600;2022-08-19T15:08:49;19.90;99.90
5956;DHT22;3004;48.080;11.600;2022-08-19T15:11:20;19.70;99.90
5956;DHT22;3004;48.080;11.600;2022-08-19T15:13:48;19.70;99.90
5956;DHT22;3004;48.080;11.600;2022-08-19T15:16:17;19.70;99.90
5956;DHT22;3004;48.080;11.600;2022-08-19T15:18:45;19.90;99.90
5956;DHT22;3004;48.080;11.600;2022-08-19T15:21:13;19.90;99.90
5956;DHT22;3004;48.080;11.600;2022-08-19T15:23:43;20.00;99.90
5956;DHT22;3004;48.080;11.600;2022-08-19T15:26:10;20.10;99.90
5956;DHT22;3004;48.080;11.600;2022-08-19T15:28:39;20.00;99.90
5956;DHT22;3004;48.080;11.600;2022-08-19T15:31:06;19.90;99.90
5956;DHT22;3004;48.080;11.600;2022-08-19T15:33:35;19.90;99.90
5956;DHT22;3004;48.080;11.600;2022-08-19T15:36:03;19.70;99.90
5956;DHT22;3004;48.080;11.600;2022-08-19T15:38:31;19.80;99.90
5956;DHT22;3004;48.080;11.600;2022-08-19T15:41:00;19.70;99.90
5956;DHT22;3004;48.080;11.600;2022-08-19T15:43:49;19.60;99.90
5956;DHT22;3004;48.080;11.600;2022-08-19T15:46:17;19.30;99.90
5956;DHT22;3004;48.080;11.600;2022-08-19T15:48:50;19.10;99.90
5956;DHT22;3004;48.080;11.600;2022-08-19T15:51:19;19.30;99.90
5956;DHT22;3004;48.080;11.600;2022-08-19T15:53:47;19.50;99.90
5956;DHT22;3004;48.080;11.600;2022-08-19T15:56:14;19.50;99.90
5956;DHT22;3004;48.080;11.600;2022-08-19T15:58:42;19.50;99.90
5956;DHT22;3004;48.080;11.600;2022-08-19T16:01:27;19.40;99.90
5956;DHT22;3004;48.080;11.600;2022-08-19T16:04:09;19.40;99.90